createdAt,value
2017-11-22T00:00:04.080Z,0
2017-11-22T00:05:03.255Z,0
2017-11-22T00:10:02.903Z,0
2017-11-22T00:15:03.364Z,0
2017-11-22T00:20:02.789Z,0
2017-11-22T00:25:03.209Z,0
2017-11-22T00:30:02.693Z,0
2017-11-22T00:35:03.221Z,0
2017-11-22T00:40:02.857Z,0
2017-11-22T00:45:03.330Z,0
2017-11-22T00:50:02.992Z,0
2017-11-22T00:55:03.429Z,0
2017-11-22T01:00:02.973Z,0
2017-11-22T01:05:02.798Z,0
2017-11-22T01:10:03.348Z,0
2017-11-22T01:15:02.832Z,0
2017-11-22T01:20:03.255Z,0
2017-11-22T01:25:02.698Z,0
2017-11-22T01:30:03.172Z,0
2017-11-22T01:35:02.698Z,0
2017-11-22T01:40:03.309Z,0
2017-11-22T01:45:02.720Z,0
2017-11-22T01:50:03.183Z,0
2017-11-22T01:55:02.815Z,0
2017-11-22T02:00:03.318Z,0
2017-11-22T02:05:02.920Z,0
2017-11-22T02:10:03.432Z,0
2017-11-22T02:15:03.046Z,0
2017-11-22T02:20:02.737Z,0
2017-11-22T02:25:03.443Z,0
2017-11-22T02:30:02.954Z,0
2017-11-22T02:35:02.492Z,0
2017-11-22T02:40:03.093Z,0
2017-11-22T02:45:02.665Z,0
2017-11-22T02:50:03.258Z,0
2017-11-22T02:55:02.699Z,0
2017-11-22T03:00:03.221Z,0
2017-11-22T03:05:02.793Z,0
2017-11-22T03:10:02.421Z,0
2017-11-22T03:15:02.977Z,0
2017-11-22T03:20:02.629Z,0
2017-11-22T03:25:03.135Z,0
2017-11-22T03:30:02.735Z,0
2017-11-22T03:35:03.408Z,0
2017-11-22T03:40:03.021Z,0
2017-11-22T03:45:03.456Z,0
2017-11-22T03:50:02.914Z,0
2017-11-22T03:55:03.421Z,0
2017-11-22T04:00:02.821Z,0
2017-11-22T04:05:03.437Z,0
2017-11-22T04:10:03.057Z,0
2017-11-22T04:15:02.584Z,0
2017-11-22T04:20:03.043Z,0
2017-11-22T04:25:02.494Z,0
2017-11-22T04:30:02.961Z,0
2017-11-22T04:35:02.449Z,0
2017-11-22T04:40:03.099Z,0
2017-11-22T04:45:02.660Z,0
2017-11-22T04:50:03.220Z,0
2017-11-22T04:55:02.784Z,0
2017-11-22T05:00:03.240Z,0
2017-11-22T05:05:02.760Z,0
2017-11-22T05:10:03.293Z,0
2017-11-22T05:15:02.919Z,0
2017-11-22T05:20:03.422Z,0
2017-11-22T05:25:02.923Z,0
2017-11-22T05:30:02.499Z,0
2017-11-22T05:35:03.154Z,0
2017-11-22T05:40:02.753Z,0
2017-11-22T05:45:03.403Z,0
2017-11-22T05:50:02.986Z,0
2017-11-22T05:55:03.354Z,0
2017-11-22T06:00:02.994Z,0
2017-11-22T06:05:02.655Z,0
2017-11-22T06:10:03.140Z,0
2017-11-22T06:15:02.639Z,0
2017-11-22T06:20:03.379Z,0
2017-11-22T06:25:02.892Z,0
2017-11-22T06:30:02.536Z,0
2017-11-22T06:35:03.101Z,0
2017-11-22T06:40:02.664Z,2
2017-11-22T06:45:03.284Z,7
2017-11-22T06:50:02.810Z,14
2017-11-22T06:55:03.293Z,27
2017-11-22T07:00:02.812Z,37
2017-11-22T07:05:03.351Z,51
2017-11-22T07:10:03.014Z,56
2017-11-22T07:15:02.516Z,77
2017-11-22T07:20:03.090Z,92
2017-11-22T07:25:02.696Z,221
2017-11-22T07:30:03.382Z,341
2017-11-22T07:35:02.948Z,509
2017-11-22T07:40:02.449Z,768
2017-11-22T07:45:02.918Z,985
2017-11-22T07:50:02.606Z,1000
2017-11-22T07:55:03.068Z,1000
2017-11-22T08:00:02.524Z,1000
2017-11-22T08:05:03.022Z,1000
2017-11-22T08:10:02.535Z,1000
2017-11-22T08:15:03.106Z,1000
2017-11-22T08:20:02.715Z,1000
2017-11-22T08:25:03.312Z,2000
2017-11-22T08:30:03.101Z,2000
2017-11-22T08:35:02.872Z,1000
2017-11-22T08:40:02.593Z,1000
2017-11-22T08:45:03.144Z,1000
2017-11-22T08:50:02.668Z,1000
2017-11-22T08:55:03.339Z,1000
2017-11-22T09:00:02.837Z,1000
2017-11-22T09:05:02.551Z,1000
2017-11-22T09:10:03.247Z,1000
2017-11-22T09:15:02.883Z,1000
2017-11-22T09:20:02.587Z,1000
2017-11-22T09:25:03.340Z,2000
2017-11-22T09:30:02.771Z,2000
2017-11-22T09:35:03.440Z,1000
2017-11-22T09:40:03.050Z,2000
2017-11-22T09:45:02.553Z,2000
2017-11-22T09:50:03.104Z,1000
2017-11-22T09:55:02.584Z,1000
2017-11-22T10:00:03.170Z,1000
2017-11-22T10:10:03.236Z,1000
2017-11-22T10:15:02.786Z,1000
2017-11-22T10:20:02.508Z,1000
2017-11-22T10:25:02.900Z,2000
2017-11-22T10:30:03.327Z,3000
2017-11-22T10:35:02.745Z,2000
2017-11-22T10:40:03.369Z,2000
2017-11-22T10:45:02.800Z,2000
2017-11-22T10:50:03.304Z,3000
2017-11-22T10:55:02.771Z,2000
2017-11-22T11:00:03.257Z,2000
2017-11-22T11:05:02.966Z,2000
2017-11-22T11:10:02.647Z,2000
2017-11-22T11:15:03.296Z,4000
2017-11-22T11:20:02.986Z,3000
2017-11-22T11:25:02.499Z,5000
2017-11-22T11:30:03.114Z,6000
2017-11-22T11:35:02.868Z,6000
2017-11-22T11:40:02.575Z,8000
2017-11-22T11:45:03.123Z,6000
2017-11-22T11:50:02.648Z,5000
2017-11-22T11:55:03.177Z,5000
2017-11-22T12:05:03.332Z,6000
2017-11-22T12:10:02.984Z,6000
2017-11-22T12:15:02.554Z,4000
2017-11-22T12:20:03.166Z,4000
2017-11-22T12:25:02.541Z,3000
2017-11-22T12:30:03.035Z,3000
2017-11-22T12:35:02.702Z,3000
2017-11-22T12:40:03.228Z,3000
2017-11-22T12:45:02.660Z,3000
2017-11-22T12:50:03.125Z,3000
2017-11-22T12:55:02.758Z,2000
2017-11-22T13:00:03.348Z,3000
2017-11-22T13:05:02.799Z,3000
2017-11-22T13:10:02.488Z,2000
2017-11-22T13:15:03.117Z,2000
2017-11-22T13:20:02.796Z,2000
2017-11-22T13:25:03.450Z,2000
2017-11-22T13:30:02.944Z,2000
2017-11-22T13:35:02.596Z,2000
2017-11-22T13:40:03.226Z,2000
2017-11-22T13:45:02.838Z,2000
2017-11-22T13:50:02.553Z,3000
2017-11-22T13:55:02.986Z,4000
2017-11-22T14:00:03.405Z,2000
2017-11-22T14:05:02.841Z,2000
2017-11-22T14:10:02.509Z,2000
2017-11-22T14:15:02.973Z,4000
2017-11-22T14:20:02.629Z,1000
2017-11-22T14:25:03.121Z,1000
2017-11-22T14:30:02.619Z,1000
2017-11-22T14:35:03.045Z,1000
2017-11-22T14:40:02.755Z,1000
2017-11-22T14:45:03.328Z,1000
2017-11-22T14:50:02.847Z,1000
2017-11-22T14:55:03.442Z,1000
2017-11-22T15:00:03.081Z,937
2017-11-22T15:05:02.537Z,808
2017-11-22T15:10:03.095Z,715
2017-11-22T15:15:02.545Z,638
2017-11-22T15:20:03.122Z,526
2017-11-22T15:25:02.579Z,416
2017-11-22T15:30:03.241Z,314
2017-11-22T15:35:02.862Z,206
2017-11-22T15:40:02.520Z,109
2017-11-22T15:45:03.011Z,65
2017-11-22T15:50:02.626Z,54
2017-11-22T15:55:03.296Z,42
2017-11-22T16:00:02.729Z,28
2017-11-22T16:05:03.312Z,12
2017-11-22T16:10:02.808Z,5
2017-11-22T16:15:02.477Z,1
2017-11-22T16:25:02.775Z,0
2017-11-22T16:30:03.370Z,0
2017-11-22T16:35:02.940Z,0
2017-11-22T16:45:03.182Z,0
2017-11-22T16:50:02.762Z,0
2017-11-22T16:55:03.427Z,0
2017-11-22T17:00:02.995Z,0
2017-11-22T17:05:02.484Z,0
2017-11-22T17:10:03.124Z,0
2017-11-22T17:15:02.636Z,0
2017-11-22T17:20:03.097Z,0
2017-11-22T17:25:02.568Z,0
2017-11-22T17:30:03.123Z,0
2017-11-22T17:35:02.655Z,0
2017-11-22T17:40:03.313Z,0
2017-11-22T17:45:02.745Z,0
2017-11-22T17:50:03.423Z,0
2017-11-22T17:55:02.988Z,0
2017-11-22T18:00:02.588Z,0
2017-11-22T18:05:03.094Z,0
2017-11-22T18:10:02.747Z,0
2017-11-22T18:15:03.404Z,0
2017-11-22T18:20:03.043Z,0
2017-11-22T18:25:02.490Z,0
2017-11-22T18:30:02.878Z,0
2017-11-22T18:35:03.409Z,0
2017-11-22T18:40:02.887Z,0
2017-11-22T18:45:02.499Z,0
2017-11-22T18:50:03.070Z,0
2017-11-22T18:55:02.570Z,0
2017-11-22T19:00:03.079Z,0
2017-11-22T19:05:02.687Z,0
2017-11-22T19:10:03.342Z,0
2017-11-22T19:15:02.912Z,0
2017-11-22T19:20:02.553Z,0
2017-11-22T19:25:03.027Z,0
2017-11-22T19:30:02.545Z,0
2017-11-22T19:35:03.062Z,0
2017-11-22T19:40:02.698Z,0
2017-11-22T19:45:03.261Z,0
2017-11-22T19:50:02.876Z,0
2017-11-22T19:55:02.503Z,0
2017-11-22T20:00:03.071Z,0
2017-11-22T20:05:02.494Z,0
2017-11-22T20:10:03.045Z,0
2017-11-22T20:15:02.701Z,0
2017-11-22T20:20:03.192Z,0
2017-11-22T20:25:02.741Z,0
2017-11-22T20:30:03.306Z,0
2017-11-22T20:35:02.985Z,0
2017-11-22T20:40:02.624Z,0
2017-11-22T20:45:03.242Z,0
2017-11-22T20:50:02.779Z,0
2017-11-22T20:55:03.318Z,0
2017-11-22T21:00:02.818Z,0
2017-11-22T21:05:03.292Z,0
2017-11-22T21:10:02.908Z,0
2017-11-22T21:15:03.322Z,0
2017-11-22T21:20:02.915Z,0
2017-11-22T21:25:03.440Z,0
2017-11-22T21:30:02.941Z,0
2017-11-22T21:35:02.457Z,0
2017-11-22T21:40:02.975Z,0
2017-11-22T21:45:02.564Z,0
2017-11-22T21:50:03.076Z,0
2017-11-22T21:55:02.624Z,0
2017-11-22T22:00:03.357Z,0
2017-11-22T22:05:02.979Z,0
2017-11-22T22:10:02.472Z,0
2017-11-22T22:15:03.130Z,0
2017-11-22T22:20:02.575Z,0
2017-11-22T22:25:03.036Z,0
2017-11-22T22:30:02.828Z,0
2017-11-22T22:35:02.493Z,0
2017-11-22T22:40:03.110Z,0
2017-11-22T22:45:02.709Z,0
2017-11-22T22:50:03.162Z,0
2017-11-22T22:55:02.763Z,0
2017-11-22T23:00:03.267Z,0
2017-11-22T23:05:02.760Z,0
2017-11-22T23:10:03.468Z,0
2017-11-22T23:15:03.105Z,0
2017-11-22T23:20:02.532Z,0
2017-11-22T23:25:03.157Z,0
2017-11-22T23:30:02.640Z,0
2017-11-22T23:35:03.079Z,0
2017-11-22T23:40:02.609Z,0
2017-11-22T23:45:03.107Z,0
2017-11-22T23:50:02.772Z,0
2017-11-22T23:55:03.367Z,0
